createdAt,value
2023-05-04T00:01:11.166Z,9.30
2023-05-04T00:03:39.109Z,9.90
2023-05-04T00:06:06.911Z,8.05
2023-05-04T00:08:34.202Z,10.32
2023-05-04T00:11:02.053Z,10.63
2023-05-04T00:13:29.342Z,10.82
2023-05-04T00:15:56.719Z,10.45
2023-05-04T00:18:24.141Z,9.32
2023-05-04T00:20:51.439Z,11.18
2023-05-04T00:23:18.715Z,12.60
2023-05-04T00:25:46.349Z,8.02
2023-05-04T00:28:13.799Z,9.45
2023-05-04T00:30:41.435Z,10.18
2023-05-04T00:33:08.916Z,11.43
2023-05-04T00:35:36.624Z,11.88
2023-05-04T00:38:05.471Z,11.90
2023-05-04T00:40:33.237Z,11.23
2023-05-04T00:43:00.692Z,11.02
2023-05-04T00:45:28.413Z,7.70
2023-05-04T00:47:56.069Z,9.80
2023-05-04T00:50:24.331Z,9.75
2023-05-04T00:52:54.870Z,9.45
2023-05-04T00:55:22.817Z,9.05
2023-05-04T00:57:50.699Z,8.60
2023-05-04T01:00:18.492Z,8.25
2023-05-04T01:02:45.965Z,11.38
2023-05-04T01:05:14.019Z,13.45
2023-05-04T01:08:17.526Z,12.30
2023-05-04T01:11:00.683Z,10.88
2023-05-04T01:13:30.565Z,12.35
2023-05-04T01:15:58.592Z,16.77
2023-05-04T01:18:26.323Z,15.10
2023-05-04T01:20:53.943Z,9.93
2023-05-04T01:23:22.472Z,11.68
2023-05-04T01:25:57.925Z,12.13
2023-05-04T01:28:37.617Z,10.55
2023-05-04T01:31:08.875Z,9.23
2023-05-04T01:33:37.734Z,14.27
2023-05-04T01:36:06.816Z,11.52
2023-05-04T01:38:34.201Z,12.85
2023-05-04T01:41:01.550Z,11.13
2023-05-04T01:43:28.880Z,10.20
2023-05-04T01:45:56.228Z,10.52
2023-05-04T01:48:23.569Z,10.77
2023-05-04T01:50:50.934Z,11.10
2023-05-04T01:53:18.274Z,10.38
2023-05-04T01:55:45.758Z,11.25
2023-05-04T01:58:13.453Z,12.50
2023-05-04T02:00:40.835Z,11.38
2023-05-04T02:03:09.465Z,13.98
2023-05-04T02:05:37.119Z,13.80
2023-05-04T02:08:04.475Z,10.93
2023-05-04T02:10:33.485Z,12.18
2023-05-04T02:13:01.717Z,11.07
2023-05-04T02:15:29.340Z,10.75
2023-05-04T02:17:56.787Z,14.55
2023-05-04T02:20:24.189Z,14.43
2023-05-04T02:22:51.501Z,10.98
2023-05-04T02:25:19.282Z,15.90
2023-05-04T02:27:46.878Z,15.50
2023-05-04T02:30:14.788Z,10.13
2023-05-04T02:32:42.533Z,12.02
2023-05-04T02:35:10.390Z,14.73
2023-05-04T02:37:37.902Z,12.88
2023-05-04T02:40:07.306Z,15.55
2023-05-04T02:42:35.415Z,10.73
2023-05-04T02:45:02.737Z,12.55
2023-05-04T02:47:30.192Z,14.68
2023-05-04T02:49:57.562Z,17.30
2023-05-04T02:52:24.931Z,10.65
2023-05-04T02:54:53.224Z,11.18
2023-05-04T02:57:20.904Z,15.15
2023-05-04T02:59:48.394Z,11.73
2023-05-04T03:02:15.722Z,12.27
2023-05-04T03:04:43.428Z,12.93
2023-05-04T03:07:11.710Z,12.32
2023-05-04T03:09:39.280Z,13.20
2023-05-04T03:12:06.935Z,11.95
2023-05-04T03:14:34.298Z,14.73
2023-05-04T03:17:02.313Z,14.52
2023-05-04T03:19:29.986Z,13.52
2023-05-04T03:21:57.546Z,15.75
2023-05-04T03:24:26.729Z,12.98
2023-05-04T03:26:54.683Z,12.93
2023-05-04T03:29:23.375Z,12.88
2023-05-04T03:31:50.848Z,11.60
2023-05-04T03:34:21.517Z,13.45
2023-05-04T03:36:53.405Z,13.55
2023-05-04T03:39:21.238Z,15.38
2023-05-04T03:41:49.563Z,11.18
2023-05-04T03:44:16.944Z,15.68
2023-05-04T03:46:44.961Z,14.27
2023-05-04T03:49:12.448Z,13.85
2023-05-04T03:51:41.587Z,14.13
2023-05-04T03:54:09.348Z,12.98
2023-05-04T03:56:36.664Z,11.05
2023-05-04T03:59:04.092Z,12.80
2023-05-04T04:01:32.305Z,14.15
2023-05-04T04:03:59.770Z,12.60
2023-05-04T04:06:27.254Z,14.07
2023-05-04T04:08:54.642Z,16.73
2023-05-04T04:11:21.906Z,12.80
2023-05-04T04:13:49.284Z,13.35
2023-05-04T04:16:16.746Z,18.48
2023-05-04T04:18:44.130Z,12.48
2023-05-04T04:21:11.485Z,18.40
2023-05-04T04:23:40.234Z,13.82
2023-05-04T04:26:07.693Z,16.67
2023-05-04T04:28:35.119Z,15.00
2023-05-04T04:31:03.737Z,11.48
2023-05-04T04:33:31.120Z,15.23
2023-05-04T04:35:58.498Z,16.00
2023-05-04T04:38:26.216Z,13.93
2023-05-04T04:40:53.777Z,14.25
2023-05-04T04:43:21.121Z,14.65
2023-05-04T04:45:49.156Z,13.02
2023-05-04T04:48:16.906Z,15.57
2023-05-04T04:50:44.250Z,12.38
2023-05-04T04:53:11.632Z,16.33
2023-05-04T04:55:39.538Z,12.70
2023-05-04T04:58:08.457Z,13.57
2023-05-04T05:00:36.350Z,13.45
2023-05-04T05:03:04.706Z,11.27
2023-05-04T05:05:32.371Z,13.02
2023-05-04T05:07:59.692Z,13.35
2023-05-04T05:10:26.968Z,14.25
2023-05-04T05:12:54.287Z,15.18
2023-05-04T05:15:21.672Z,9.82
2023-05-04T05:17:49.093Z,15.50
2023-05-04T05:20:18.670Z,14.10
2023-05-04T05:22:46.069Z,13.10
2023-05-04T05:25:13.404Z,13.15
2023-05-04T05:27:41.117Z,13.55
2023-05-04T05:30:08.930Z,11.05
2023-05-04T05:32:36.285Z,13.02
2023-05-04T05:35:15.289Z,9.65
2023-05-04T05:37:45.360Z,10.60
2023-05-04T05:40:14.090Z,13.45
2023-05-04T05:42:42.898Z,15.18
2023-05-04T05:45:11.418Z,9.88
2023-05-04T05:47:38.838Z,12.13
2023-05-04T05:50:07.644Z,8.55
2023-05-04T05:52:35.241Z,11.32
2023-05-04T05:55:03.025Z,11.63
2023-05-04T05:57:30.789Z,10.93
2023-05-04T05:59:58.142Z,9.30
2023-05-04T06:02:26.305Z,13.27
2023-05-04T06:04:53.828Z,11.52
2023-05-04T06:07:21.926Z,13.27
2023-05-04T06:09:49.364Z,8.40
2023-05-04T06:12:17.303Z,10.30
2023-05-04T06:14:47.859Z,11.45
2023-05-04T06:17:15.351Z,10.82
2023-05-04T06:19:42.694Z,8.98
2023-05-04T06:22:10.022Z,10.20
2023-05-04T06:24:37.653Z,15.13
2023-05-04T06:27:05.018Z,11.40
2023-05-04T06:29:32.862Z,12.15
2023-05-04T06:32:00.710Z,8.18
2023-05-04T06:34:29.362Z,9.60
2023-05-04T06:36:57.495Z,9.65
2023-05-04T06:39:24.882Z,8.93
2023-05-04T06:41:55.427Z,9.50
2023-05-04T06:44:22.947Z,10.02
2023-05-04T06:46:50.399Z,8.35
2023-05-04T06:49:18.194Z,10.95
2023-05-04T06:51:45.894Z,12.00
2023-05-04T06:54:13.452Z,9.85
2023-05-04T06:56:40.864Z,8.32
2023-05-04T06:59:09.901Z,7.47
2023-05-04T07:01:37.502Z,6.93
2023-05-04T07:04:05.103Z,7.80
2023-05-04T07:06:32.436Z,12.35
2023-05-04T07:08:59.802Z,7.07
2023-05-04T07:11:28.394Z,7.32
2023-05-04T07:13:57.099Z,7.93
2023-05-04T07:16:26.872Z,7.57
2023-05-04T07:18:54.424Z,6.15
2023-05-04T07:21:27.668Z,7.70
2023-05-04T07:23:56.238Z,5.90
2023-05-04T07:26:23.886Z,7.40
2023-05-04T07:28:51.236Z,9.38
2023-05-04T07:31:18.615Z,7.20
2023-05-04T07:33:46.045Z,7.20
2023-05-04T07:36:13.595Z,5.57
2023-05-04T07:38:41.501Z,8.82
2023-05-04T07:41:08.837Z,7.40
2023-05-04T07:43:36.157Z,7.43
2023-05-04T07:46:03.567Z,6.30
2023-05-04T07:48:31.188Z,5.63
2023-05-04T07:50:58.954Z,7.38
2023-05-04T07:53:26.756Z,9.77
2023-05-04T07:56:01.023Z,5.75
2023-05-04T07:58:28.415Z,4.45
2023-05-04T08:00:55.908Z,5.18
2023-05-04T08:03:23.330Z,5.30
2023-05-04T08:05:51.220Z,6.88
2023-05-04T08:08:18.584Z,7.68
2023-05-04T08:10:46.203Z,12.48
2023-05-04T08:13:13.608Z,13.00
2023-05-04T08:15:41.401Z,4.43
2023-05-04T08:18:08.758Z,5.63
2023-05-04T08:20:36.170Z,3.97
2023-05-04T08:23:04.867Z,6.82
2023-05-04T08:25:32.336Z,6.25
2023-05-04T08:27:59.729Z,5.90
2023-05-04T08:30:27.093Z,5.22
2023-05-04T08:32:55.543Z,6.90
2023-05-04T08:35:26.076Z,7.05
2023-05-04T08:37:53.808Z,6.93
2023-05-04T08:40:21.991Z,6.47
2023-05-04T08:42:50.644Z,6.60
2023-05-04T08:45:18.990Z,5.93
2023-05-04T08:47:46.750Z,7.00
2023-05-04T08:50:14.415Z,4.57
2023-05-04T08:52:49.203Z,4.03
2023-05-04T08:55:17.458Z,4.65
2023-05-04T08:57:45.723Z,6.55
2023-05-04T09:00:17.956Z,4.50
2023-05-04T09:02:46.980Z,7.55
2023-05-04T09:05:14.876Z,5.53
2023-05-04T09:07:42.311Z,4.75
2023-05-04T09:10:10.209Z,4.72
2023-05-04T09:12:38.114Z,5.82
2023-05-04T09:15:18.497Z,4.03
2023-05-04T09:18:02.558Z,4.38
2023-05-04T09:20:31.067Z,7.75
2023-05-04T09:23:11.530Z,7.53
2023-05-04T09:25:50.675Z,4.82
2023-05-04T09:28:20.169Z,5.47
2023-05-04T09:30:51.621Z,4.47
2023-05-04T09:33:27.478Z,5.28
2023-05-04T09:35:55.194Z,6.60
2023-05-04T09:38:28.509Z,5.80
2023-05-04T09:40:58.224Z,5.35
2023-05-04T09:43:25.524Z,7.10
2023-05-04T09:45:53.435Z,6.25
2023-05-04T09:48:26.841Z,5.80
2023-05-04T09:51:00.344Z,4.85
2023-05-04T09:53:29.304Z,6.75
2023-05-04T09:56:11.254Z,5.30
2023-05-04T09:58:39.053Z,5.85
2023-05-04T10:01:06.628Z,3.17
2023-05-04T10:03:34.807Z,6.20
2023-05-04T10:06:09.489Z,5.57
2023-05-04T10:08:39.501Z,4.90
2023-05-04T10:11:08.612Z,9.18
2023-05-04T10:13:37.063Z,5.18
2023-05-04T10:16:26.475Z,3.60
2023-05-04T10:19:22.536Z,5.78
2023-05-04T10:21:59.785Z,4.63
2023-05-04T10:24:45.827Z,4.35
2023-05-04T10:27:21.446Z,6.20
2023-05-04T10:29:51.273Z,7.13
2023-05-04T10:32:22.697Z,4.50
2023-05-04T10:34:51.153Z,3.28
2023-05-04T10:37:21.788Z,3.20
2023-05-04T10:39:53.685Z,5.50
2023-05-04T10:42:21.893Z,3.70
2023-05-04T10:44:55.279Z,6.03
2023-05-04T10:47:37.202Z,4.88
2023-05-04T10:50:06.767Z,3.60
2023-05-04T10:52:49.381Z,4.13
2023-05-04T10:55:19.212Z,6.03
2023-05-04T10:57:51.815Z,4.45
2023-05-04T11:00:19.639Z,5.10
2023-05-04T11:02:47.865Z,4.82
2023-05-04T11:05:20.397Z,2.97
2023-05-04T11:07:53.213Z,6.95
2023-05-04T11:10:25.838Z,4.88
2023-05-04T11:12:55.020Z,5.80
2023-05-04T11:15:22.792Z,4.30
2023-05-04T11:17:52.418Z,3.80
2023-05-04T11:20:27.443Z,4.00
2023-05-04T11:22:55.134Z,4.22
2023-05-04T11:25:29.935Z,3.50
2023-05-04T11:27:58.687Z,4.00
2023-05-04T11:30:33.955Z,6.20
2023-05-04T11:33:04.834Z,3.67
2023-05-04T11:35:32.391Z,3.90
2023-05-04T11:37:59.816Z,4.30
2023-05-04T11:40:27.769Z,4.80
2023-05-04T11:42:57.826Z,4.38
2023-05-04T11:45:29.025Z,4.60
2023-05-04T11:47:57.552Z,5.43
2023-05-04T11:50:26.051Z,5.65
2023-05-04T11:53:09.089Z,4.53
2023-05-04T11:55:40.072Z,6.47
2023-05-04T11:58:11.925Z,3.90
2023-05-04T12:00:43.975Z,4.60
2023-05-04T12:03:16.855Z,3.83
2023-05-04T12:06:03.235Z,4.15
2023-05-04T12:08:44.401Z,4.43
2023-05-04T12:11:26.397Z,5.18
2023-05-04T12:14:10.900Z,6.13
2023-05-04T12:16:39.045Z,4.22
2023-05-04T12:19:13.588Z,6.18
2023-05-04T12:24:18.133Z,5.45
2023-05-04T12:26:45.446Z,3.70
2023-05-04T12:29:12.785Z,4.40
2023-05-04T12:31:40.078Z,4.20
2023-05-04T12:34:07.559Z,6.20
2023-05-04T12:36:35.633Z,7.80
2023-05-04T12:39:03.556Z,3.17
2023-05-04T12:41:31.565Z,4.22
2023-05-04T12:43:59.441Z,4.63
2023-05-04T12:46:26.773Z,8.07
2023-05-04T12:48:57.279Z,5.05
2023-05-04T12:51:24.711Z,4.03
2023-05-04T12:53:51.998Z,3.85
2023-05-04T12:56:19.338Z,8.43
2023-05-04T12:58:46.674Z,2.83
2023-05-04T13:01:14.037Z,3.50
2023-05-04T13:03:41.634Z,3.80
2023-05-04T13:06:09.103Z,5.72
2023-05-04T13:08:36.498Z,3.88
2023-05-04T13:11:03.804Z,4.80
2023-05-04T13:13:31.135Z,2.85
2023-05-04T13:15:58.572Z,2.80
2023-05-04T13:18:27.961Z,3.22
2023-05-04T13:21:07.120Z,2.85
2023-05-04T13:23:38.071Z,3.63
2023-05-04T13:26:06.342Z,4.25
2023-05-04T13:28:33.670Z,2.30
2023-05-04T13:31:01.669Z,3.22
2023-05-04T13:33:30.757Z,2.67
2023-05-04T13:35:59.049Z,3.08
2023-05-04T13:38:26.929Z,2.67
2023-05-04T13:40:55.170Z,3.70
2023-05-04T13:43:23.194Z,5.18
2023-05-04T13:45:51.297Z,2.22
2023-05-04T13:48:19.149Z,4.07
2023-05-04T13:50:46.808Z,4.53
2023-05-04T13:53:14.220Z,2.67
2023-05-04T13:55:41.717Z,4.28
2023-05-04T13:58:09.110Z,2.53
2023-05-04T14:00:36.539Z,4.57
2023-05-04T14:03:04.514Z,4.50
2023-05-04T14:05:32.052Z,2.92
2023-05-04T14:07:59.302Z,4.28
2023-05-04T14:10:26.840Z,2.97
2023-05-04T14:12:54.140Z,3.45
2023-05-04T14:15:24.414Z,4.40
2023-05-04T14:17:51.833Z,4.80
2023-05-04T14:20:19.185Z,2.60
2023-05-04T14:22:46.628Z,3.50
2023-05-04T14:25:14.816Z,2.45
2023-05-04T14:27:45.402Z,2.80
2023-05-04T14:30:13.575Z,4.15
2023-05-04T14:32:41.557Z,2.38
2023-05-04T14:35:10.721Z,2.85
2023-05-04T14:37:39.907Z,3.78
2023-05-04T14:40:09.201Z,3.60
2023-05-04T14:42:37.332Z,2.30
2023-05-04T14:45:06.316Z,3.28
2023-05-04T14:47:34.066Z,2.95
2023-05-04T14:50:02.248Z,3.60
2023-05-04T14:52:29.763Z,3.45
2023-05-04T14:54:57.380Z,5.22
2023-05-04T14:57:24.706Z,2.72
2023-05-04T14:59:52.361Z,4.65
2023-05-04T15:02:20.005Z,2.15
2023-05-04T15:04:47.801Z,4.68
2023-05-04T15:07:20.656Z,5.25
2023-05-04T15:09:48.381Z,3.80
2023-05-04T15:12:16.534Z,3.60
2023-05-04T15:14:44.784Z,2.58
2023-05-04T15:17:12.281Z,3.88
2023-05-04T15:19:40.537Z,2.67
2023-05-04T15:22:08.516Z,3.47
2023-05-04T15:24:36.294Z,4.35
2023-05-04T15:27:03.786Z,2.53
2023-05-04T15:29:31.345Z,4.65
2023-05-04T15:31:58.673Z,3.15
2023-05-04T15:34:26.171Z,3.83
2023-05-04T15:36:54.881Z,4.13
2023-05-04T15:39:22.189Z,5.32
2023-05-04T15:41:49.632Z,3.58
2023-05-04T15:44:17.767Z,2.75
2023-05-04T15:46:47.274Z,2.85
2023-05-04T15:49:16.487Z,3.05
2023-05-04T15:51:43.872Z,2.10
2023-05-04T15:54:11.612Z,3.88
2023-05-04T15:56:38.917Z,3.30
2023-05-04T15:59:06.534Z,3.85
2023-05-04T16:01:34.365Z,2.72
2023-05-04T16:04:02.113Z,3.50
2023-05-04T16:06:29.808Z,3.92
2023-05-04T16:08:57.359Z,4.22
2023-05-04T16:11:24.942Z,3.85
2023-05-04T16:13:52.693Z,3.85
2023-05-04T16:16:20.069Z,3.58
2023-05-04T16:18:47.512Z,2.50
2023-05-04T16:21:15.156Z,3.17
2023-05-04T16:23:42.572Z,3.40
2023-05-04T16:26:10.140Z,3.90
2023-05-04T16:28:37.924Z,3.55
2023-05-04T16:31:06.067Z,2.83
2023-05-04T16:33:33.556Z,3.65
2023-05-04T16:36:03.098Z,5.30
2023-05-04T16:38:31.078Z,6.18
2023-05-04T16:40:58.561Z,2.67
2023-05-04T16:43:25.883Z,4.50
2023-05-04T16:45:53.249Z,4.80
2023-05-04T16:48:22.231Z,3.97
2023-05-04T16:50:50.783Z,7.10
2023-05-04T16:53:18.146Z,4.53
2023-05-04T16:55:45.568Z,4.82
2023-05-04T16:58:12.901Z,3.58
2023-05-04T17:00:43.786Z,4.70
2023-05-04T17:03:11.377Z,2.85
2023-05-04T17:05:38.820Z,3.10
2023-05-04T17:08:06.522Z,4.07
2023-05-04T17:10:33.844Z,2.50
2023-05-04T17:13:02.518Z,5.57
2023-05-04T17:15:30.210Z,2.35
2023-05-04T17:17:58.019Z,3.20
2023-05-04T17:20:31.920Z,5.75
2023-05-04T17:22:59.668Z,2.40
2023-05-04T17:25:27.649Z,6.50
2023-05-04T17:27:55.791Z,4.78
2023-05-04T17:30:23.389Z,5.25
2023-05-04T17:32:51.133Z,3.20
2023-05-04T17:35:25.284Z,4.25
2023-05-04T17:37:57.962Z,5.43
2023-05-04T17:40:27.431Z,3.72
2023-05-04T17:42:55.667Z,4.25
2023-05-04T17:45:23.184Z,3.28
2023-05-04T17:47:53.697Z,4.55
2023-05-04T17:50:21.411Z,3.63
2023-05-04T17:52:53.254Z,6.75
2023-05-04T17:55:21.020Z,6.65
2023-05-04T17:57:48.469Z,3.90
2023-05-04T18:00:16.070Z,6.55
2023-05-04T18:02:43.406Z,2.58
2023-05-04T18:05:11.137Z,4.43
2023-05-04T18:07:38.697Z,2.28
2023-05-04T18:10:06.644Z,3.17
2023-05-04T18:12:35.460Z,3.22
2023-05-04T18:15:03.834Z,3.38
2023-05-04T18:17:31.572Z,3.30
2023-05-04T18:19:58.928Z,3.38
2023-05-04T18:22:26.352Z,4.82
2023-05-04T18:24:56.756Z,3.45
2023-05-04T18:27:24.082Z,3.15
2023-05-04T18:29:53.886Z,4.05
2023-05-04T18:32:21.907Z,2.90
2023-05-04T18:34:52.041Z,3.95
2023-05-04T18:37:19.446Z,2.22
2023-05-04T18:39:47.303Z,3.17
2023-05-04T18:42:14.820Z,2.95
2023-05-04T18:44:42.427Z,5.07
2023-05-04T18:47:10.202Z,2.78
2023-05-04T18:49:44.422Z,3.42
2023-05-04T18:52:13.224Z,3.17
2023-05-04T18:54:42.979Z,3.25
2023-05-04T18:57:14.373Z,3.08
2023-05-04T18:59:42.786Z,2.85
2023-05-04T19:02:11.014Z,3.13
2023-05-04T19:04:38.518Z,7.07
2023-05-04T19:07:05.910Z,5.38
2023-05-04T19:09:33.440Z,3.70
2023-05-04T19:12:00.839Z,2.95
2023-05-04T19:14:30.379Z,2.80
2023-05-04T19:16:58.082Z,1.98
2023-05-04T19:19:26.042Z,2.80
2023-05-04T19:21:53.534Z,2.60
2023-05-04T19:24:22.203Z,3.10
2023-05-04T19:26:49.648Z,3.63
2023-05-04T19:29:17.081Z,3.28
2023-05-04T19:32:22.735Z,4.43
2023-05-04T19:34:52.142Z,3.85
2023-05-04T19:37:19.574Z,4.05
2023-05-04T19:39:47.121Z,2.50
2023-05-04T19:42:14.457Z,2.90
2023-05-04T19:44:41.921Z,2.50
2023-05-04T19:47:09.376Z,3.03
2023-05-04T19:49:36.867Z,3.80
2023-05-04T19:52:07.026Z,3.20
2023-05-04T19:54:34.628Z,5.38
2023-05-04T19:57:01.982Z,4.15
2023-05-04T19:59:29.305Z,3.75
2023-05-04T20:01:58.148Z,4.03
2023-05-04T20:04:25.501Z,5.85
2023-05-04T20:06:52.812Z,2.42
2023-05-04T20:09:20.141Z,2.92
2023-05-04T20:11:47.446Z,3.63
2023-05-04T20:14:14.778Z,2.65
2023-05-04T20:16:42.142Z,3.80
2023-05-04T20:19:09.695Z,4.05
2023-05-04T20:21:36.970Z,6.18
2023-05-04T20:24:07.458Z,4.50
2023-05-04T20:26:34.800Z,6.25
2023-05-04T20:29:02.205Z,5.20
2023-05-04T20:31:30.298Z,5.72
2023-05-04T20:33:57.694Z,5.40
2023-05-04T20:36:25.126Z,8.57
2023-05-04T20:38:52.403Z,5.07
2023-05-04T20:41:19.787Z,4.68
2023-05-04T20:43:47.148Z,4.10
2023-05-04T20:46:14.461Z,7.40
2023-05-04T20:48:42.323Z,4.38
2023-05-04T20:51:14.558Z,4.55
2023-05-04T20:53:42.673Z,6.10
2023-05-04T20:56:10.115Z,8.90
2023-05-04T20:58:37.474Z,4.47
2023-05-04T21:01:05.488Z,6.25
2023-05-04T21:03:33.109Z,3.97
2023-05-04T21:06:02.539Z,8.68
2023-05-04T21:08:29.905Z,9.27
2023-05-04T21:10:57.190Z,6.03
2023-05-04T21:13:24.560Z,5.00
2023-05-04T21:15:51.893Z,4.50
2023-05-04T21:18:19.667Z,3.63
2023-05-04T21:20:47.195Z,7.22
2023-05-04T21:23:14.628Z,5.20
2023-05-04T21:25:42.204Z,7.13
2023-05-04T21:28:09.614Z,3.60
2023-05-04T21:30:40.250Z,5.65
2023-05-04T21:33:07.610Z,10.95
2023-05-04T21:35:34.951Z,7.05
2023-05-04T21:38:02.357Z,7.13
2023-05-04T21:40:29.695Z,4.35
2023-05-04T21:42:57.001Z,4.80
2023-05-04T21:45:24.382Z,4.22
2023-05-04T21:47:51.958Z,5.00
2023-05-04T21:50:19.358Z,8.02
2023-05-04T21:52:46.662Z,4.93
2023-05-04T21:55:17.335Z,4.60
2023-05-04T21:57:45.240Z,4.32
2023-05-04T22:00:17.210Z,5.57
2023-05-04T22:02:45.312Z,5.43
2023-05-04T22:05:12.974Z,2.78
2023-05-04T22:07:40.548Z,5.10
2023-05-04T22:10:08.843Z,6.00
2023-05-04T22:12:36.769Z,4.43
2023-05-04T22:15:04.404Z,4.13
2023-05-04T22:17:31.787Z,4.88
2023-05-04T22:19:59.156Z,8.48
2023-05-04T22:22:26.499Z,4.43
2023-05-04T22:24:53.815Z,4.45
2023-05-04T22:27:21.230Z,5.60
2023-05-04T22:29:48.554Z,3.60
2023-05-04T22:32:15.933Z,5.47
2023-05-04T22:34:43.248Z,4.18
2023-05-04T22:37:10.632Z,5.68
2023-05-04T22:39:38.054Z,5.82
2023-05-04T22:42:05.498Z,6.93
2023-05-04T22:44:34.596Z,4.43
2023-05-04T22:47:01.978Z,4.75
2023-05-04T22:49:29.240Z,6.50
2023-05-04T22:51:56.542Z,6.75
2023-05-04T22:54:23.907Z,6.60
2023-05-04T22:56:51.407Z,4.22
2023-05-04T22:59:18.736Z,5.93
2023-05-04T23:01:46.526Z,10.13
2023-05-04T23:04:13.996Z,5.97
2023-05-04T23:06:41.415Z,7.32
2023-05-04T23:09:09.006Z,5.55
2023-05-04T23:11:36.453Z,6.43
2023-05-04T23:14:03.906Z,7.80
2023-05-04T23:16:31.806Z,4.88
2023-05-04T23:18:59.226Z,6.97
2023-05-04T23:21:27.312Z,8.48
2023-05-04T23:23:55.109Z,6.85
2023-05-04T23:26:23.610Z,6.20
2023-05-04T23:28:51.034Z,6.07
2023-05-04T23:31:18.516Z,6.53
2023-05-04T23:33:46.069Z,5.93
2023-05-04T23:36:13.471Z,6.97
2023-05-04T23:38:41.208Z,11.27
2023-05-04T23:41:08.756Z,10.15
2023-05-04T23:43:37.485Z,6.75
2023-05-04T23:46:06.172Z,7.57
2023-05-04T23:48:33.646Z,6.20
2023-05-04T23:51:03.962Z,9.25
2023-05-04T23:53:31.889Z,7.20
2023-05-04T23:56:03.511Z,7.53
2023-05-04T23:58:32.708Z,7.15
